To NAV CANADA Home Page Login to a new session Search on AWWS site Feedback and Comments Disclaimer Vers la page française équivalente Tips FAQ What's new on the site To the Forecasts and Observations / NOTAM section To "File a Flight Plan" website Publications and other links Update of the User's profile FIC Telephone Numbers My Weather Data Folder Route Weather Data Regional Weather Data Local Weather Data To the Forecasts and Observations / NOTAM section
Request Generated 05/27/2016 at 21:57:20 UTC . Weather information available at that time is displayed.

METAR/TAF

COLD LAKE/GROUP CAPTAIN R.W. MCNAIR/AB    

METAR CYOD 272100Z 13015G21KT 15SM VCSH FEW070TCU SCT120 SCT250 23/09 A2979 RMK TCU2AC1CI0 SLP091=
SPECI CYOD 272027Z 11014KT 15SM VCSH SCT045TCU BKN120 22/10 A2980 RMK TCU3AC2 CB NE QUAD MOVG NW SLP097=
METAR CYOD 272000Z 18011G16KT 12SM -TSRA BKN060CB BKN090 20/08 A2981 RMK CB5AC2 TS E QUAD MOVG NW TCU ASOCTD FRQ LTGCCCG NE QUAD SLP
100=
METAR CYOD 271900Z CCA 11015KT 15SM TS SCT060CB SCT180 23/11 A2982 RMK CB3AC1 TS E QUAD MOVG NW TCU ASOCTD OCNL LTGCCCG 20MN NE SLP1
00=
METAR CYOD 271900Z 11015KT 15SM SCT060CB SCT180 23/11 A2982 RMK CB3AC1 TS E QUAD MOVG NW TCU ASOCTD OCNL LTGCCCG 20MN NE SLP100=

TAF CYOD 272030Z 2721/2818 16010G20KT P6SM SCT050 SCT080 TEMPO
2721/2803 VRB20G30KT 6SM -TSRA BKN050CB
FM280300 12012KT P6SM SCT050 BKN100 TEMPO 2803/2812 P6SM -SHRA
BKN050
FM281200 13010KT P6SM -SHRA OVC030 TEMPO 2812/2816 3SM -SHRA BR
SCT012 OVC020 PROB30 2812/2816 2SM TSRA BR BKN009 BKN030CB
FM281600 17010KT P6SM BKN030 BKN080
RMK NXT FCST BY 280000Z=
Your time UTC time
Weather data provided by Environment Canada and NAV CANADA